Главная страница
METAR-TAF:

METAR-TAF

Аэропорты :

Сочи, Россия

широта: 43-26N, долгота: 039-54E, высота над уровнем моря: 16 м

Текущие метеонаблюдения

Эта сводка был подготовлена 31 минут назад, в 23:00 UTC
Ветер 4 Узел от восточный
Температура 7°C
Влажность 76%
Давление 1019 hPa
Видимость 10 км и более

METAR: URSS 182300Z 08002MPS 9999 NSC 07/03 Q1019 R06/090070 R02/090070 NOSIG RMK R02/05004MPS QFE763

Время: 02:31 (23:31 UTC)

Прогноз

Эта сводка был подготовлена 3 часа и 35 минут назад, в 19:56 UTC
Прогноз действительный с 18-го 21 UTC до 19-го 21 UTC
Ветер 12 Узел от северо-восточный
Видимость 10 км и более
изменения
С 19-го 08 UTC до 19-го 09 UTC
Ветер 2 Узел переменных направлений
Рассеянная облачность на высоте 10000 фута
изменения
С 19-го 15 UTC до 19-го 16 UTC
Ветер 12 Узел от северо-восточный
Сплошная облачность на высоте 10000 фута

TAF: URSS 181956Z 1821/1921 05006MPS 9999 NSC BECMG 1908/1909 VRB01MPS BKN100 BECMG 1915/1916 05006MPS OVC100

Метеонаблюдения и прогнозы для более 4000 аэропортов (сводки METAR и TAF).

Имеющиеся станции представлены на карте желтыми и красными точками.

Чтобы увидеть название станции, наведите на нее мышь.

Затем щелкните, чтобы увидеть метеонаблюдения и метеопрогнозы.

Управление картой: чтобы увеличить масштаб, щелкните зеленые кнопки с черным крестиком; чтобы уменьшить масштаб, щелкните зеленую кнопку с тире; для просмотра соседних карт щелкайте зеленые стрелки.


METAR-TAF: